createdAt,value
2023-03-26T00:01:39.057Z,1.70
2023-03-26T00:06:41.732Z,1.80
2023-03-26T00:11:46.678Z,2.63
2023-03-26T00:16:49.399Z,0.82
2023-03-26T00:21:52.535Z,2.33
2023-03-26T00:26:55.950Z,2.45
2023-03-26T00:31:58.468Z,1.67
2023-03-26T00:37:02.357Z,1.80
2023-03-26T00:42:06.843Z,2.08
2023-03-26T00:47:09.074Z,1.92
2023-03-26T00:52:11.015Z,1.85
2023-03-26T00:57:22.559Z,2.70
2023-03-26T01:02:33.163Z,1.33
2023-03-26T01:07:36.998Z,2.70
2023-03-26T01:12:41.242Z,3.17
2023-03-26T01:17:43.300Z,2.72
2023-03-26T01:22:49.305Z,2.00
2023-03-26T01:27:55.810Z,1.20
2023-03-26T01:33:04.346Z,1.15
2023-03-26T01:38:18.209Z,1.30
2023-03-26T01:43:30.585Z,3.75
2023-03-26T01:48:36.357Z,2.75
2023-03-26T01:53:42.403Z,3.22
2023-03-26T01:59:00.845Z,2.10
2023-03-26T02:04:11.429Z,2.00
2023-03-26T02:09:19.036Z,0.65
2023-03-26T02:14:23.005Z,2.97
2023-03-26T02:19:25.225Z,2.45
2023-03-26T02:24:27.851Z,3.88
2023-03-26T02:29:31.194Z,4.57
2023-03-26T02:39:36.287Z,1.67
2023-03-26T02:44:40.230Z,2.33
2023-03-26T02:49:42.503Z,2.60
2023-03-26T02:54:44.579Z,1.40
2023-03-26T03:00:08.824Z,1.60
2023-03-26T03:10:32.918Z,3.10
2023-03-26T03:27:39.306Z,1.83
2023-03-26T03:32:41.900Z,0.75
2023-03-26T03:37:45.423Z,2.25
2023-03-26T03:43:43.442Z,1.63
2023-03-26T03:48:49.617Z,3.08
2023-03-26T04:00:27.388Z,0.77
2023-03-26T04:12:22.491Z,1.30
2023-03-26T04:17:26.570Z,2.25
2023-03-26T04:22:42.467Z,4.05
2023-03-26T04:27:46.196Z,1.30
2023-03-26T04:39:42.101Z,4.18
2023-03-26T04:45:37.958Z,2.03
2023-03-26T04:50:42.546Z,2.90
2023-03-26T05:08:32.033Z,2.92
2023-03-26T05:13:34.146Z,0.38
2023-03-26T05:19:14.703Z,2.65
2023-03-26T05:35:26.553Z,0.68
2023-03-26T05:40:28.922Z,1.70
2023-03-26T05:51:41.916Z,1.17
2023-03-26T07:02:59.396Z,2.00
2023-03-26T07:08:01.523Z,3.22
2023-03-26T07:13:03.708Z,3.95
2023-03-26T07:18:07.267Z,6.45
2023-03-26T07:23:10.960Z,2.70
2023-03-26T07:28:24.341Z,4.20
2023-03-26T07:33:35.720Z,1.02
2023-03-26T07:38:51.914Z,3.38
2023-03-26T07:44:07.795Z,2.17
2023-03-26T07:49:12.897Z,2.53
2023-03-26T07:54:15.808Z,2.22
2023-03-26T07:59:24.899Z,0.68
2023-03-26T08:04:48.524Z,1.17
2023-03-26T08:10:03.469Z,1.15
2023-03-26T08:15:14.370Z,2.13
2023-03-26T08:20:31.129Z,3.35
2023-03-26T08:25:37.365Z,2.33
2023-03-26T08:30:40.565Z,2.38
2023-03-26T08:35:45.563Z,6.78
2023-03-26T08:41:38.881Z,4.07
2023-03-26T08:52:32.342Z,2.83
2023-03-26T08:57:58.357Z,2.45
2023-03-26T09:03:17.625Z,3.53
2023-03-26T09:09:05.991Z,1.95
2023-03-26T09:14:46.340Z,0.68
2023-03-26T09:20:48.420Z,2.80
2023-03-26T09:26:28.164Z,1.73
2023-03-26T09:31:59.601Z,2.08
2023-03-26T09:37:24.579Z,3.72
2023-03-26T09:42:37.784Z,1.50
2023-03-26T09:48:07.596Z,2.67
2023-03-26T09:53:28.165Z,2.95
2023-03-26T09:58:46.110Z,2.35
2023-03-26T10:03:59.412Z,2.00
2023-03-26T10:09:20.519Z,1.25
2023-03-26T10:14:32.484Z,3.92
2023-03-26T10:19:56.407Z,2.35
2023-03-26T10:25:21.833Z,2.20
2023-03-26T10:30:48.415Z,2.00
2023-03-26T10:36:02.256Z,3.35
2023-03-26T10:41:13.245Z,0.57
2023-03-26T10:46:41.607Z,3.42
2023-03-26T10:51:51.466Z,1.35
2023-03-26T10:56:56.062Z,14.02
2023-03-26T11:02:20.850Z,2.90
2023-03-26T11:07:38.104Z,2.30
2023-03-26T11:12:46.411Z,1.75
2023-03-26T11:17:59.017Z,2.67
2023-03-26T11:23:23.213Z,1.77
2023-03-26T11:29:03.065Z,2.13
2023-03-26T11:34:13.066Z,2.60
2023-03-26T11:39:21.065Z,1.95
2023-03-26T11:44:28.194Z,1.73
2023-03-26T11:49:30.800Z,4.32
2023-03-26T11:54:33.640Z,7.10
2023-03-26T12:05:14.688Z,2.47
2023-03-26T12:10:33.167Z,1.98
2023-03-26T12:15:42.995Z,1.38
2023-03-26T12:20:45.055Z,4.32
2023-03-26T12:26:05.462Z,0.82
2023-03-26T12:31:17.900Z,1.67
2023-03-26T12:36:24.687Z,1.17
2023-03-26T12:44:43.362Z,2.03
2023-03-26T12:47:58.582Z,1.88
2023-03-26T12:52:59.831Z,2.75
2023-03-26T12:58:13.756Z,5.15
2023-03-26T13:03:30.709Z,2.90
2023-03-26T13:08:52.324Z,3.85
2023-03-26T13:19:15.939Z,1.42
2023-03-26T13:24:31.357Z,0.73
2023-03-26T13:29:43.137Z,2.03
2023-03-26T13:35:02.797Z,5.05
2023-03-26T13:40:22.228Z,0.73
2023-03-26T13:45:41.922Z,0.90
2023-03-26T13:50:52.364Z,2.03
2023-03-26T13:55:56.840Z,2.50
2023-03-26T14:01:05.238Z,0.65
2023-03-26T14:06:16.686Z,0.68
2023-03-26T14:11:24.248Z,0.70
2023-03-26T14:16:33.543Z,1.48
2023-03-26T14:21:48.089Z,1.00
2023-03-26T14:27:18.527Z,2.97
2023-03-26T14:32:42.152Z,2.75
2023-03-26T14:38:07.122Z,1.55
2023-03-26T14:43:35.384Z,0.73
2023-03-26T14:48:50.320Z,1.50
2023-03-26T14:53:58.922Z,0.57
2023-03-26T14:59:46.371Z,3.72
2023-03-26T15:05:24.573Z,1.35
2023-03-26T15:10:52.193Z,1.80
2023-03-26T15:16:20.826Z,1.88
2023-03-26T15:21:54.479Z,0.50
2023-03-26T15:27:24.385Z,3.17
2023-03-26T15:32:58.281Z,2.13
2023-03-26T15:38:50.774Z,3.72
2023-03-26T15:44:24.059Z,1.65
2023-03-26T15:49:40.077Z,1.38
2023-03-26T15:54:52.056Z,6.07
2023-03-26T16:00:15.215Z,3.58
2023-03-26T16:05:33.035Z,4.22
2023-03-26T16:10:44.543Z,3.60
2023-03-26T16:15:55.917Z,2.60
2023-03-26T16:21:36.439Z,2.58
2023-03-26T16:32:13.691Z,2.15
2023-03-26T16:37:36.241Z,1.30
2023-03-26T16:42:41.590Z,4.28
2023-03-26T16:47:51.515Z,3.10
2023-03-26T16:53:02.005Z,2.47
2023-03-26T16:58:12.362Z,3.60
2023-03-26T17:03:43.593Z,5.05
2023-03-26T17:08:57.298Z,5.18
2023-03-26T17:14:12.009Z,2.28
2023-03-26T17:19:29.633Z,3.40
2023-03-26T17:24:42.816Z,5.47
2023-03-26T17:30:03.809Z,4.20
2023-03-26T17:35:09.413Z,3.72
2023-03-26T17:40:48.920Z,2.35
2023-03-26T17:46:03.180Z,4.20
2023-03-26T17:51:27.669Z,7.03
2023-03-26T17:56:32.353Z,4.15
2023-03-26T18:01:37.041Z,3.00
2023-03-26T18:06:58.866Z,2.15
2023-03-26T18:17:12.055Z,4.13
2023-03-26T18:22:20.015Z,3.10
2023-03-26T18:27:23.625Z,3.58
2023-03-26T18:32:30.818Z,3.97
2023-03-26T18:37:36.064Z,3.38
2023-03-26T18:42:40.314Z,2.00
2023-03-26T18:47:43.401Z,4.90
2023-03-26T18:52:46.842Z,5.28
2023-03-26T18:57:51.212Z,2.72
2023-03-26T19:03:01.720Z,4.22
2023-03-26T19:08:06.692Z,3.40
2023-03-26T19:13:13.228Z,5.40
2023-03-26T19:18:19.041Z,3.95
2023-03-26T19:23:26.538Z,4.97
2023-03-26T19:28:31.774Z,4.78
2023-03-26T19:33:36.940Z,4.47
2023-03-26T19:38:47.019Z,5.78
2023-03-26T19:43:50.491Z,2.40
2023-03-26T19:48:54.328Z,2.85
2023-03-26T19:54:00.746Z,7.93
2023-03-26T19:59:02.934Z,3.92
2023-03-26T20:04:06.790Z,3.38
2023-03-26T20:09:11.145Z,2.45
2023-03-26T20:14:16.404Z,2.63
2023-03-26T20:19:19.241Z,4.05
2023-03-26T20:24:24.685Z,4.03
2023-03-26T20:29:28.626Z,8.10
2023-03-26T20:34:32.027Z,2.95
2023-03-26T20:39:35.345Z,3.38
2023-03-26T20:44:37.762Z,3.97
2023-03-26T20:49:40.323Z,5.90
2023-03-26T20:54:43.708Z,1.45
2023-03-26T20:59:45.804Z,2.40
2023-03-26T21:04:48.143Z,4.63
2023-03-26T21:09:52.151Z,2.85
2023-03-26T21:14:55.920Z,5.40
2023-03-26T21:20:06.475Z,3.85
2023-03-26T21:25:25.693Z,7.63
2023-03-26T21:30:28.165Z,3.05
2023-03-26T21:35:31.204Z,3.47
2023-03-26T21:40:35.401Z,3.05
2023-03-26T21:45:38.707Z,2.03
2023-03-26T21:50:41.291Z,2.53
2023-03-26T21:55:57.372Z,7.82
2023-03-26T22:01:16.633Z,9.90
2023-03-26T22:06:25.056Z,6.13
2023-03-26T22:11:28.451Z,11.70
2023-03-26T22:16:30.755Z,6.05
2023-03-26T22:21:33.749Z,5.75
2023-03-26T22:26:37.583Z,7.03
2023-03-26T22:31:41.086Z,8.05
2023-03-26T22:36:43.136Z,12.68
2023-03-26T22:41:46.460Z,8.57
2023-03-26T22:51:53.134Z,14.80
2023-03-26T22:56:56.609Z,22.63
2023-03-26T23:01:58.704Z,12.40
2023-03-26T23:07:00.793Z,3.83
2023-03-26T23:12:04.838Z,5.78
2023-03-26T23:17:07.115Z,11.77
2023-03-26T23:22:09.573Z,11.05
2023-03-26T23:27:12.887Z,12.48
2023-03-26T23:32:24.324Z,12.82
2023-03-26T23:37:29.340Z,8.63
2023-03-26T23:42:34.462Z,12.25
2023-03-26T23:47:37.261Z,10.88
2023-03-26T23:52:39.348Z,14.70
2023-03-26T23:57:43.180Z,11.05
